Aiquara, Brazil
Current Conditions -  °F | °C
As of 5:00 AM on Tuesday 21 Oct 2014 (Local Time) from SBIL Reporting Station
Rain Showers Rain Showers  
Wind Chill: 77°   Ceiling: 7000
Heat Index: 78°   Visibility: 5mi
Dew Point: 72°   Wind: 5mph
Humidity: 83%   Direction: 40°NE
Pressure: 29.91"   Gusts: NA
Location:  14.13°S, 39.89°W
Report Text: SBIL 210800Z 04004KT 8000 VCSH SCT018 SCT030 BKN070 25/22 Q1013
Loading
Personal Weather Stations






























Interactive Weather Map
Tropical Storm Tracking
New forecast layout! Learn more

10-Day Weather Forecast

Advertisements
Track Severe Weather on mobile